createdAt,value
2018-09-26T00:15:50.894Z,47.66
2018-09-26T00:30:51.764Z,48.10
2018-09-26T00:45:54.535Z,47.57
2018-09-26T01:00:50.042Z,48.32
2018-09-26T01:15:50.939Z,48.21
2018-09-26T01:30:53.955Z,49.20
2018-09-26T01:45:50.451Z,49.48
2018-09-26T02:00:51.027Z,49.46
2018-09-26T02:30:51.077Z,50.47
2018-09-26T02:45:53.149Z,50.36
2018-09-26T03:00:50.397Z,54.02
2018-09-26T03:15:50.558Z,50.39
2018-09-26T03:30:50.352Z,51.21
2018-09-26T03:45:51.206Z,52.13
2018-09-26T04:00:50.863Z,51.87
2018-09-26T04:15:54.799Z,52.47
2018-09-26T04:30:50.724Z,53.04
2018-09-26T04:45:50.684Z,52.95
2018-09-26T05:00:53.242Z,52.62
2018-09-26T05:15:52.145Z,50.21
2018-09-26T05:30:51.173Z,47.26
2018-09-26T05:45:53.404Z,43.22
2018-09-26T06:00:50.018Z,41.07
2018-09-26T06:15:50.458Z,38.19
2018-09-26T06:30:52.743Z,38.34
2018-09-26T06:45:51.518Z,36.66
2018-09-26T07:00:50.798Z,35.04
2018-09-26T07:15:50.697Z,33.87
2018-09-26T07:30:50.591Z,33.45
2018-09-26T07:45:50.458Z,33.68
2018-09-26T08:00:51.154Z,32.66
2018-09-26T08:15:50.774Z,32.33
2018-09-26T08:30:51.838Z,31.94
2018-09-26T08:45:50.906Z,30.49
2018-09-26T09:45:57.113Z,31.46
2018-09-26T10:00:55.501Z,31.55
2018-09-26T10:15:50.373Z,29.91
2018-09-26T10:30:50.458Z,29.04
2018-09-26T10:45:52.378Z,30.29
2018-09-26T11:00:50.613Z,32.20
2018-09-26T11:15:50.775Z,31.60
2018-09-26T11:30:51.351Z,32.03
2018-09-26T11:45:50.668Z,32.28
2018-09-26T12:00:51.471Z,31.97
2018-09-26T12:15:51.114Z,32.29
2018-09-26T12:30:50.976Z,31.97
2018-09-26T12:45:50.931Z,32.62
2018-09-26T13:00:52.483Z,33.12
2018-09-26T13:15:55.879Z,34.24
2018-09-26T13:30:50.088Z,34.73
2018-09-26T13:45:50.845Z,35.12
2018-09-26T14:00:50.314Z,33.96
2018-09-26T14:15:50.447Z,34.08
2018-09-26T14:30:51.003Z,35.72
2018-09-26T14:45:51.283Z,35.58
2018-09-26T15:00:52.170Z,35.09
2018-09-26T15:15:54.643Z,35.66
2018-09-26T15:30:50.639Z,35.53
2018-09-26T15:45:51.715Z,44.53
2018-09-26T16:00:51.269Z,36.60
2018-09-26T16:15:50.976Z,37.13
2018-09-26T16:30:52.977Z,37.63
2018-09-26T16:45:54.250Z,36.96
2018-09-26T17:00:50.177Z,37.62
2018-09-26T17:15:50.476Z,37.15
2018-09-26T17:30:49.689Z,37.38
2018-09-26T17:45:50.152Z,37.88
2018-09-26T18:00:50.431Z,38.37
2018-09-26T18:15:50.444Z,39.03
2018-09-26T18:30:50.792Z,40.53
2018-09-26T18:45:51.410Z,40.96
2018-09-26T19:00:50.935Z,41.44
2018-09-26T19:15:50.942Z,41.61
2018-09-26T19:30:50.683Z,42.43
2018-09-26T19:45:50.616Z,42.84
2018-09-26T20:00:51.011Z,43.92
2018-09-26T20:15:51.201Z,44.28
2018-09-26T20:30:51.507Z,44.33
2018-09-26T20:45:52.858Z,44.75
2018-09-26T21:00:51.489Z,44.97
2018-09-26T21:15:51.193Z,45.78
2018-09-26T21:30:51.191Z,47.97
2018-09-26T21:45:56.174Z,48.47
2018-09-26T22:00:55.918Z,49.33
2018-09-26T22:15:50.621Z,50.03
2018-09-26T22:30:50.739Z,50.35
2018-09-26T22:45:51.271Z,50.47
2018-09-26T23:00:50.936Z,51.24
2018-09-26T23:15:50.713Z,52.00
2018-09-26T23:30:50.715Z,52.65
2018-09-26T23:45:50.710Z,52.88
